sensor_id;sensor_type;location;lat;lon;timestamp;temperature;humidity
22852;DHT22;11592;45.460;9.240;2023-06-26T00:00:06;26.40;99.90
22852;DHT22;11592;45.460;9.240;2023-06-26T00:02:34;26.30;99.90
22852;DHT22;11592;45.460;9.240;2023-06-26T00:05:01;26.20;99.90
22852;DHT22;11592;45.460;9.240;2023-06-26T00:07:30;25.90;99.90
22852;DHT22;11592;45.460;9.240;2023-06-26T00:09:57;25.80;99.90
22852;DHT22;11592;45.460;9.240;2023-06-26T00:12:25;25.90;99.90
22852;DHT22;11592;45.460;9.240;2023-06-26T00:14:53;26.00;99.90
22852;DHT22;11592;45.460;9.240;2023-06-26T00:17:20;26.00;99.90
22852;DHT22;11592;45.460;9.240;2023-06-26T00:19:47;25.90;99.90
22852;DHT22;11592;45.460;9.240;2023-06-26T00:22:13;25.90;99.90
22852;DHT22;11592;45.460;9.240;2023-06-26T00:24:40;25.80;99.90
22852;DHT22;11592;45.460;9.240;2023-06-26T00:27:07;25.80;99.90
22852;DHT22;11592;45.460;9.240;2023-06-26T00:29:34;25.90;99.90
22852;DHT22;11592;45.460;9.240;2023-06-26T00:32:02;25.90;99.90
22852;DHT22;11592;45.460;9.240;2023-06-26T00:34:28;25.80;99.90
22852;DHT22;11592;45.460;9.240;2023-06-26T00:36:55;25.80;99.90
22852;DHT22;11592;45.460;9.240;2023-06-26T00:39:22;25.80;99.90
22852;DHT22;11592;45.460;9.240;2023-06-26T00:41:52;25.70;99.90
22852;DHT22;11592;45.460;9.240;2023-06-26T00:44:22;25.70;99.90
22852;DHT22;11592;45.460;9.240;2023-06-26T00:46:49;25.60;99.90
22852;DHT22;11592;45.460;9.240;2023-06-26T00:49:16;25.60;99.90
22852;DHT22;11592;45.460;9.240;2023-06-26T00:51:43;25.60;99.90
22852;DHT22;11592;45.460;9.240;2023-06-26T00:54:10;25.70;99.90
22852;DHT22;11592;45.460;9.240;2023-06-26T00:56:37;25.60;99.90
22852;DHT22;11592;45.460;9.240;2023-06-26T00:59:04;25.70;99.90
22852;DHT22;11592;45.460;9.240;2023-06-26T01:01:31;25.60;99.90
22852;DHT22;11592;45.460;9.240;2023-06-26T01:03:58;25.60;99.90
22852;DHT22;11592;45.460;9.240;2023-06-26T01:06:26;25.50;99.90
22852;DHT22;11592;45.460;9.240;2023-06-26T01:08:54;25.40;99.90
22852;DHT22;11592;45.460;9.240;2023-06-26T01:11:21;25.40;99.90
22852;DHT22;11592;45.460;9.240;2023-06-26T01:13:48;25.30;99.90
22852;DHT22;11592;45.460;9.240;2023-06-26T01:16:17;25.30;99.90
22852;DHT22;11592;45.460;9.240;2023-06-26T01:18:46;25.20;99.90
22852;DHT22;11592;45.460;9.240;2023-06-26T01:21:15;25.30;99.90
22852;DHT22;11592;45.460;9.240;2023-06-26T01:26:19;25.20;99.90
22852;DHT22;11592;45.460;9.240;2023-06-26T01:28:47;25.10;99.90
22852;DHT22;11592;45.460;9.240;2023-06-26T01:31:15;25.20;99.90
22852;DHT22;11592;45.460;9.240;2023-06-26T01:33:43;25.20;99.90
22852;DHT22;11592;45.460;9.240;2023-06-26T01:36:10;25.20;99.90
22852;DHT22;11592;45.460;9.240;2023-06-26T01:38:37;25.10;99.90
22852;DHT22;11592;45.460;9.240;2023-06-26T01:41:05;25.00;99.90
22852;DHT22;11592;45.460;9.240;2023-06-26T01:44:23;25.10;99.90
22852;DHT22;11592;45.460;9.240;2023-06-26T01:49:50;25.10;99.90
22852;DHT22;11592;45.460;9.240;2023-06-26T01:52:25;25.10;99.90
22852;DHT22;11592;45.460;9.240;2023-06-26T01:56:12;25.10;99.90
22852;DHT22;11592;45.460;9.240;2023-06-26T01:58:06;25.10;99.90
22852;DHT22;11592;45.460;9.240;2023-06-26T02:00:34;24.90;99.90
22852;DHT22;11592;45.460;9.240;2023-06-26T02:03:03;25.00;99.90
22852;DHT22;11592;45.460;9.240;2023-06-26T02:05:32;25.00;99.90
22852;DHT22;11592;45.460;9.240;2023-06-26T02:07:59;24.90;99.90
22852;DHT22;11592;45.460;9.240;2023-06-26T02:10:27;24.90;99.90
22852;DHT22;11592;45.460;9.240;2023-06-26T02:12:54;24.90;99.90
22852;DHT22;11592;45.460;9.240;2023-06-26T02:15:21;24.90;99.90
22852;DHT22;11592;45.460;9.240;2023-06-26T02:17:48;24.90;99.90
22852;DHT22;11592;45.460;9.240;2023-06-26T02:20:15;24.80;99.90
22852;DHT22;11592;45.460;9.240;2023-06-26T02:22:42;24.70;99.90
22852;DHT22;11592;45.460;9.240;2023-06-26T02:25:10;24.90;99.90
22852;DHT22;11592;45.460;9.240;2023-06-26T02:27:37;24.80;99.90
22852;DHT22;11592;45.460;9.240;2023-06-26T02:30:04;24.70;99.90
22852;DHT22;11592;45.460;9.240;2023-06-26T02:32:31;24.80;99.90
22852;DHT22;11592;45.460;9.240;2023-06-26T02:34:58;24.80;99.90
22852;DHT22;11592;45.460;9.240;2023-06-26T02:37:24;24.80;99.90
22852;DHT22;11592;45.460;9.240;2023-06-26T02:39:51;24.80;99.90
22852;DHT22;11592;45.460;9.240;2023-06-26T02:42:18;24.70;99.90
22852;DHT22;11592;45.460;9.240;2023-06-26T02:44:45;24.60;99.90
22852;DHT22;11592;45.460;9.240;2023-06-26T02:47:12;24.70;99.90
22852;DHT22;11592;45.460;9.240;2023-06-26T02:49:38;24.60;99.90
22852;DHT22;11592;45.460;9.240;2023-06-26T02:52:05;24.60;99.90
22852;DHT22;11592;45.460;9.240;2023-06-26T02:54:32;24.60;99.90
22852;DHT22;11592;45.460;9.240;2023-06-26T02:56:59;24.50;99.90
22852;DHT22;11592;45.460;9.240;2023-06-26T02:59:26;24.40;99.90
22852;DHT22;11592;45.460;9.240;2023-06-26T03:01:53;24.50;99.90
22852;DHT22;11592;45.460;9.240;2023-06-26T03:04:20;24.40;99.90
22852;DHT22;11592;45.460;9.240;2023-06-26T03:06:48;24.40;99.90
22852;DHT22;11592;45.460;9.240;2023-06-26T03:09:15;24.40;99.90
22852;DHT22;11592;45.460;9.240;2023-06-26T03:11:43;24.50;99.90
22852;DHT22;11592;45.460;9.240;2023-06-26T03:14:09;24.40;99.90
22852;DHT22;11592;45.460;9.240;2023-06-26T03:16:36;24.40;99.90
22852;DHT22;11592;45.460;9.240;2023-06-26T03:19:03;24.30;99.90
22852;DHT22;11592;45.460;9.240;2023-06-26T03:21:32;24.30;99.90
22852;DHT22;11592;45.460;9.240;2023-06-26T03:23:59;24.30;99.90
22852;DHT22;11592;45.460;9.240;2023-06-26T03:26:25;24.40;99.90
22852;DHT22;11592;45.460;9.240;2023-06-26T03:28:54;24.40;99.90
22852;DHT22;11592;45.460;9.240;2023-06-26T03:31:21;24.40;99.90
22852;DHT22;11592;45.460;9.240;2023-06-26T03:33:48;24.40;99.90
22852;DHT22;11592;45.460;9.240;2023-06-26T03:36:15;24.30;99.90
22852;DHT22;11592;45.460;9.240;2023-06-26T03:38:42;24.20;99.90
22852;DHT22;11592;45.460;9.240;2023-06-26T03:41:09;24.20;99.90
22852;DHT22;11592;45.460;9.240;2023-06-26T03:43:36;24.30;99.90
22852;DHT22;11592;45.460;9.240;2023-06-26T03:46:02;24.40;99.90
22852;DHT22;11592;45.460;9.240;2023-06-26T03:48:29;24.40;99.90
22852;DHT22;11592;45.460;9.240;2023-06-26T03:50:56;24.30;99.90
22852;DHT22;11592;45.460;9.240;2023-06-26T03:53:23;24.20;99.90
22852;DHT22;11592;45.460;9.240;2023-06-26T03:55:50;24.20;99.90
22852;DHT22;11592;45.460;9.240;2023-06-26T03:58:17;24.30;99.90
22852;DHT22;11592;45.460;9.240;2023-06-26T04:00:43;24.40;99.90
22852;DHT22;11592;45.460;9.240;2023-06-26T04:03:10;24.40;99.90
22852;DHT22;11592;45.460;9.240;2023-06-26T04:05:37;24.40;99.90
22852;DHT22;11592;45.460;9.240;2023-06-26T04:08:04;24.40;99.90
22852;DHT22;11592;45.460;9.240;2023-06-26T04:10:31;24.50;99.90
22852;DHT22;11592;45.460;9.240;2023-06-26T04:12:58;24.50;99.90
22852;DHT22;11592;45.460;9.240;2023-06-26T04:15:25;24.50;99.90
22852;DHT22;11592;45.460;9.240;2023-06-26T04:17:52;24.60;99.90
22852;DHT22;11592;45.460;9.240;2023-06-26T04:20:19;24.50;99.90
22852;DHT22;11592;45.460;9.240;2023-06-26T04:22:47;24.50;99.90
22852;DHT22;11592;45.460;9.240;2023-06-26T04:25:14;24.60;99.90
22852;DHT22;11592;45.460;9.240;2023-06-26T04:27:40;24.50;99.90
22852;DHT22;11592;45.460;9.240;2023-06-26T04:30:08;24.50;99.90
22852;DHT22;11592;45.460;9.240;2023-06-26T04:32:35;24.50;99.90
22852;DHT22;11592;45.460;9.240;2023-06-26T04:35:02;24.50;99.90
22852;DHT22;11592;45.460;9.240;2023-06-26T04:37:29;24.50;99.90
22852;DHT22;11592;45.460;9.240;2023-06-26T04:39:56;24.60;99.90
22852;DHT22;11592;45.460;9.240;2023-06-26T04:42:23;24.70;99.90
22852;DHT22;11592;45.460;9.240;2023-06-26T04:44:50;24.70;99.90
22852;DHT22;11592;45.460;9.240;2023-06-26T04:47:17;24.70;99.90
22852;DHT22;11592;45.460;9.240;2023-06-26T04:49:43;24.70;99.90
22852;DHT22;11592;45.460;9.240;2023-06-26T04:52:13;24.80;99.90
22852;DHT22;11592;45.460;9.240;2023-06-26T04:54:40;24.80;99.90
22852;DHT22;11592;45.460;9.240;2023-06-26T04:57:07;24.80;99.90
22852;DHT22;11592;45.460;9.240;2023-06-26T04:59:35;24.90;99.90
22852;DHT22;11592;45.460;9.240;2023-06-26T05:02:02;24.90;99.90
22852;DHT22;11592;45.460;9.240;2023-06-26T05:04:29;25.00;99.90
22852;DHT22;11592;45.460;9.240;2023-06-26T05:06:56;25.00;99.90
22852;DHT22;11592;45.460;9.240;2023-06-26T05:09:23;25.10;99.90
22852;DHT22;11592;45.460;9.240;2023-06-26T05:11:51;25.10;99.90
22852;DHT22;11592;45.460;9.240;2023-06-26T05:14:18;25.10;99.90
22852;DHT22;11592;45.460;9.240;2023-06-26T05:16:45;25.20;99.90
22852;DHT22;11592;45.460;9.240;2023-06-26T05:19:12;25.30;99.90
22852;DHT22;11592;45.460;9.240;2023-06-26T05:21:39;25.30;99.90
22852;DHT22;11592;45.460;9.240;2023-06-26T05:24:07;25.40;99.90
22852;DHT22;11592;45.460;9.240;2023-06-26T05:26:35;25.50;99.90
22852;DHT22;11592;45.460;9.240;2023-06-26T05:29:02;25.50;99.90
22852;DHT22;11592;45.460;9.240;2023-06-26T05:31:32;25.60;99.90
22852;DHT22;11592;45.460;9.240;2023-06-26T05:34:02;25.60;99.90
22852;DHT22;11592;45.460;9.240;2023-06-26T05:36:31;25.70;99.90
22852;DHT22;11592;45.460;9.240;2023-06-26T05:39:00;25.80;99.90
22852;DHT22;11592;45.460;9.240;2023-06-26T05:41:27;25.90;99.90
22852;DHT22;11592;45.460;9.240;2023-06-26T05:43:54;25.80;99.90
22852;DHT22;11592;45.460;9.240;2023-06-26T05:46:21;25.90;99.90
22852;DHT22;11592;45.460;9.240;2023-06-26T05:48:49;26.00;99.90
22852;DHT22;11592;45.460;9.240;2023-06-26T05:51:16;26.10;99.90
22852;DHT22;11592;45.460;9.240;2023-06-26T05:53:43;26.20;99.90
22852;DHT22;11592;45.460;9.240;2023-06-26T05:56:10;26.20;99.90
22852;DHT22;11592;45.460;9.240;2023-06-26T05:58:38;26.20;99.90
22852;DHT22;11592;45.460;9.240;2023-06-26T06:01:05;26.40;99.90
22852;DHT22;11592;45.460;9.240;2023-06-26T06:03:31;26.50;99.90
22852;DHT22;11592;45.460;9.240;2023-06-26T06:05:59;26.60;99.90
22852;DHT22;11592;45.460;9.240;2023-06-26T06:08:25;26.60;99.90
22852;DHT22;11592;45.460;9.240;2023-06-26T06:10:52;26.70;99.90
22852;DHT22;11592;45.460;9.240;2023-06-26T06:13:19;26.70;99.90
22852;DHT22;11592;45.460;9.240;2023-06-26T06:15:46;26.80;99.90
22852;DHT22;11592;45.460;9.240;2023-06-26T06:18:13;26.90;99.90
22852;DHT22;11592;45.460;9.240;2023-06-26T06:20:40;27.00;99.90
22852;DHT22;11592;45.460;9.240;2023-06-26T06:23:07;27.00;99.90
22852;DHT22;11592;45.460;9.240;2023-06-26T06:25:34;27.00;99.90
22852;DHT22;11592;45.460;9.240;2023-06-26T06:28:01;26.90;99.90
22852;DHT22;11592;45.460;9.240;2023-06-26T06:30:28;27.00;99.90
22852;DHT22;11592;45.460;9.240;2023-06-26T06:33:01;27.00;99.90
22852;DHT22;11592;45.460;9.240;2023-06-26T06:35:28;27.10;99.90
22852;DHT22;11592;45.460;9.240;2023-06-26T06:37:56;27.20;99.90
22852;DHT22;11592;45.460;9.240;2023-06-26T06:40:23;27.20;99.90
22852;DHT22;11592;45.460;9.240;2023-06-26T06:42:51;27.30;99.90
22852;DHT22;11592;45.460;9.240;2023-06-26T06:45:18;27.40;99.90
22852;DHT22;11592;45.460;9.240;2023-06-26T06:47:45;27.40;99.90
22852;DHT22;11592;45.460;9.240;2023-06-26T06:50:12;27.40;99.90
22852;DHT22;11592;45.460;9.240;2023-06-26T06:52:40;27.50;99.90
22852;DHT22;11592;45.460;9.240;2023-06-26T06:55:07;27.40;99.90
22852;DHT22;11592;45.460;9.240;2023-06-26T06:57:39;27.50;99.90
22852;DHT22;11592;45.460;9.240;2023-06-26T07:00:08;27.50;99.90
22852;DHT22;11592;45.460;9.240;2023-06-26T07:02:39;27.60;99.90
22852;DHT22;11592;45.460;9.240;2023-06-26T07:05:06;27.60;99.90
22852;DHT22;11592;45.460;9.240;2023-06-26T07:07:34;27.70;99.90
22852;DHT22;11592;45.460;9.240;2023-06-26T07:10:04;27.80;99.90
22852;DHT22;11592;45.460;9.240;2023-06-26T07:12:31;27.80;99.90
22852;DHT22;11592;45.460;9.240;2023-06-26T07:14:58;27.80;99.90
22852;DHT22;11592;45.460;9.240;2023-06-26T07:17:25;27.80;99.90
22852;DHT22;11592;45.460;9.240;2023-06-26T07:19:51;27.90;99.90
22852;DHT22;11592;45.460;9.240;2023-06-26T07:22:18;27.90;99.90
22852;DHT22;11592;45.460;9.240;2023-06-26T07:24:47;28.00;99.90
22852;DHT22;11592;45.460;9.240;2023-06-26T07:27:15;27.90;99.90
22852;DHT22;11592;45.460;9.240;2023-06-26T07:29:42;27.90;99.90
22852;DHT22;11592;45.460;9.240;2023-06-26T07:32:09;28.00;99.90
22852;DHT22;11592;45.460;9.240;2023-06-26T07:34:39;28.00;99.90
22852;DHT22;11592;45.460;9.240;2023-06-26T07:37:07;28.10;99.90
22852;DHT22;11592;45.460;9.240;2023-06-26T07:39:34;28.10;99.90
22852;DHT22;11592;45.460;9.240;2023-06-26T07:42:01;28.20;99.90
22852;DHT22;11592;45.460;9.240;2023-06-26T07:44:28;28.10;99.90
22852;DHT22;11592;45.460;9.240;2023-06-26T07:46:54;28.10;99.90
22852;DHT22;11592;45.460;9.240;2023-06-26T07:49:21;28.20;99.90
22852;DHT22;11592;45.460;9.240;2023-06-26T07:51:48;28.10;99.90
22852;DHT22;11592;45.460;9.240;2023-06-26T07:54:15;28.30;99.90
22852;DHT22;11592;45.460;9.240;2023-06-26T07:56:56;28.40;99.90
22852;DHT22;11592;45.460;9.240;2023-06-26T07:59:24;28.40;99.90
22852;DHT22;11592;45.460;9.240;2023-06-26T08:01:52;28.50;99.90
22852;DHT22;11592;45.460;9.240;2023-06-26T08:04:20;28.50;99.90
22852;DHT22;11592;45.460;9.240;2023-06-26T08:06:52;28.50;99.90
22852;DHT22;11592;45.460;9.240;2023-06-26T08:09:20;28.60;99.90
22852;DHT22;11592;45.460;9.240;2023-06-26T08:11:47;28.70;99.90
22852;DHT22;11592;45.460;9.240;2023-06-26T08:14:15;28.80;99.90
22852;DHT22;11592;45.460;9.240;2023-06-26T08:16:43;28.90;99.90
22852;DHT22;11592;45.460;9.240;2023-06-26T08:19:12;28.90;99.90
22852;DHT22;11592;45.460;9.240;2023-06-26T08:21:40;28.90;99.90
22852;DHT22;11592;45.460;9.240;2023-06-26T08:24:07;29.00;99.90
22852;DHT22;11592;45.460;9.240;2023-06-26T08:26:34;29.00;99.90
22852;DHT22;11592;45.460;9.240;2023-06-26T08:29:01;29.10;99.90
22852;DHT22;11592;45.460;9.240;2023-06-26T08:31:38;29.10;99.90
22852;DHT22;11592;45.460;9.240;2023-06-26T08:34:06;29.20;99.90
22852;DHT22;11592;45.460;9.240;2023-06-26T08:36:32;29.30;99.90
22852;DHT22;11592;45.460;9.240;2023-06-26T08:38:59;29.30;99.90
22852;DHT22;11592;45.460;9.240;2023-06-26T08:41:26;29.50;99.90
22852;DHT22;11592;45.460;9.240;2023-06-26T08:43:53;29.60;99.90
22852;DHT22;11592;45.460;9.240;2023-06-26T08:46:20;29.70;99.90
22852;DHT22;11592;45.460;9.240;2023-06-26T08:48:53;29.50;99.90
22852;DHT22;11592;45.460;9.240;2023-06-26T08:51:24;29.50;99.90
22852;DHT22;11592;45.460;9.240;2023-06-26T08:53:59;29.70;99.90
22852;DHT22;11592;45.460;9.240;2023-06-26T08:56:36;29.70;99.90
22852;DHT22;11592;45.460;9.240;2023-06-26T08:59:04;29.70;99.90
22852;DHT22;11592;45.460;9.240;2023-06-26T09:01:32;29.80;99.90
22852;DHT22;11592;45.460;9.240;2023-06-26T09:03:59;30.00;99.90
22852;DHT22;11592;45.460;9.240;2023-06-26T09:06:26;30.00;99.90
22852;DHT22;11592;45.460;9.240;2023-06-26T09:08:53;30.10;99.90
22852;DHT22;11592;45.460;9.240;2023-06-26T09:11:20;30.10;99.90
22852;DHT22;11592;45.460;9.240;2023-06-26T09:13:47;30.10;99.90
22852;DHT22;11592;45.460;9.240;2023-06-26T09:16:14;30.20;99.70
22852;DHT22;11592;45.460;9.240;2023-06-26T09:18:41;30.00;98.80
22852;DHT22;11592;45.460;9.240;2023-06-26T09:21:11;30.10;98.80
22852;DHT22;11592;45.460;9.240;2023-06-26T09:23:40;30.10;99.60
22852;DHT22;11592;45.460;9.240;2023-06-26T09:26:08;30.10;98.70
22852;DHT22;11592;45.460;9.240;2023-06-26T09:28:35;30.20;98.50
22852;DHT22;11592;45.460;9.240;2023-06-26T09:31:07;30.30;98.60
22852;DHT22;11592;45.460;9.240;2023-06-26T09:33:36;30.40;98.50
22852;DHT22;11592;45.460;9.240;2023-06-26T09:36:07;30.60;98.50
22852;DHT22;11592;45.460;9.240;2023-06-26T09:38:36;30.80;97.80
22852;DHT22;11592;45.460;9.240;2023-06-26T09:41:03;30.70;97.60
22852;DHT22;11592;45.460;9.240;2023-06-26T09:43:30;30.70;98.30
22852;DHT22;11592;45.460;9.240;2023-06-26T09:46:00;30.60;97.70
22852;DHT22;11592;45.460;9.240;2023-06-26T09:48:28;30.60;97.90
22852;DHT22;11592;45.460;9.240;2023-06-26T09:50:55;30.70;98.00
22852;DHT22;11592;45.460;9.240;2023-06-26T09:53:42;30.90;99.60
22852;DHT22;11592;45.460;9.240;2023-06-26T09:56:16;31.10;98.50
22852;DHT22;11592;45.460;9.240;2023-06-26T09:58:45;31.10;97.60
22852;DHT22;11592;45.460;9.240;2023-06-26T10:01:13;31.20;98.10
22852;DHT22;11592;45.460;9.240;2023-06-26T10:03:41;31.30;97.70
22852;DHT22;11592;45.460;9.240;2023-06-26T10:06:09;31.30;97.30
22852;DHT22;11592;45.460;9.240;2023-06-26T10:08:39;31.40;98.80
22852;DHT22;11592;45.460;9.240;2023-06-26T10:11:08;31.50;98.30
22852;DHT22;11592;45.460;9.240;2023-06-26T10:13:41;31.60;97.90
22852;DHT22;11592;45.460;9.240;2023-06-26T10:16:09;31.70;97.70
22852;DHT22;11592;45.460;9.240;2023-06-26T10:18:38;31.70;97.50
22852;DHT22;11592;45.460;9.240;2023-06-26T10:21:06;31.70;97.10
22852;DHT22;11592;45.460;9.240;2023-06-26T10:23:35;31.30;97.30
22852;DHT22;11592;45.460;9.240;2023-06-26T10:26:03;31.30;97.00
22852;DHT22;11592;45.460;9.240;2023-06-26T10:28:33;31.30;97.00
22852;DHT22;11592;45.460;9.240;2023-06-26T10:31:03;31.40;96.40
22852;DHT22;11592;45.460;9.240;2023-06-26T10:33:30;31.20;97.30
22852;DHT22;11592;45.460;9.240;2023-06-26T10:36:18;31.30;97.00
22852;DHT22;11592;45.460;9.240;2023-06-26T10:38:54;31.50;96.90
22852;DHT22;11592;45.460;9.240;2023-06-26T10:41:22;31.70;98.00
22852;DHT22;11592;45.460;9.240;2023-06-26T10:46:33;31.90;96.40
22852;DHT22;11592;45.460;9.240;2023-06-26T10:49:01;32.00;97.20
22852;DHT22;11592;45.460;9.240;2023-06-26T10:51:28;32.10;96.60
22852;DHT22;11592;45.460;9.240;2023-06-26T10:53:56;32.10;95.80
22852;DHT22;11592;45.460;9.240;2023-06-26T10:56:46;32.20;95.80
22852;DHT22;11592;45.460;9.240;2023-06-26T10:59:21;32.50;96.60
22852;DHT22;11592;45.460;9.240;2023-06-26T11:01:57;32.60;96.30
22852;DHT22;11592;45.460;9.240;2023-06-26T11:07:21;32.80;95.10
22852;DHT22;11592;45.460;9.240;2023-06-26T11:10:09;32.90;95.60
22852;DHT22;11592;45.460;9.240;2023-06-26T11:12:41;32.70;95.40
22852;DHT22;11592;45.460;9.240;2023-06-26T11:15:11;32.80;96.60
22852;DHT22;11592;45.460;9.240;2023-06-26T11:17:38;32.90;95.70
22852;DHT22;11592;45.460;9.240;2023-06-26T11:20:06;33.30;96.40
22852;DHT22;11592;45.460;9.240;2023-06-26T11:22:39;33.40;95.50
22852;DHT22;11592;45.460;9.240;2023-06-26T11:25:07;33.70;95.70
22852;DHT22;11592;45.460;9.240;2023-06-26T11:27:38;33.50;94.20
22852;DHT22;11592;45.460;9.240;2023-06-26T11:30:07;33.30;94.80
22852;DHT22;11592;45.460;9.240;2023-06-26T11:32:35;33.30;94.60
22852;DHT22;11592;45.460;9.240;2023-06-26T11:35:03;33.30;95.80
22852;DHT22;11592;45.460;9.240;2023-06-26T11:37:34;33.80;96.60
22852;DHT22;11592;45.460;9.240;2023-06-26T11:40:17;33.90;94.90
22852;DHT22;11592;45.460;9.240;2023-06-26T11:42:45;34.00;93.80
22852;DHT22;11592;45.460;9.240;2023-06-26T11:45:12;33.90;95.00
22852;DHT22;11592;45.460;9.240;2023-06-26T11:47:39;33.70;93.40
22852;DHT22;11592;45.460;9.240;2023-06-26T11:50:06;33.60;94.50
22852;DHT22;11592;45.460;9.240;2023-06-26T11:52:33;33.80;93.80
22852;DHT22;11592;45.460;9.240;2023-06-26T11:55:00;33.80;93.90
22852;DHT22;11592;45.460;9.240;2023-06-26T11:57:27;33.70;93.50
22852;DHT22;11592;45.460;9.240;2023-06-26T11:59:57;33.90;93.80
22852;DHT22;11592;45.460;9.240;2023-06-26T12:02:23;33.90;94.20
22852;DHT22;11592;45.460;9.240;2023-06-26T12:04:50;34.20;94.10
22852;DHT22;11592;45.460;9.240;2023-06-26T12:07:18;34.30;93.60
22852;DHT22;11592;45.460;9.240;2023-06-26T12:09:46;34.50;92.90
22852;DHT22;11592;45.460;9.240;2023-06-26T12:12:16;34.60;92.70
22852;DHT22;11592;45.460;9.240;2023-06-26T12:14:43;34.70;94.40
22852;DHT22;11592;45.460;9.240;2023-06-26T12:17:12;34.60;92.20
22852;DHT22;11592;45.460;9.240;2023-06-26T12:19:43;34.50;92.50
22852;DHT22;11592;45.460;9.240;2023-06-26T12:22:10;34.40;93.60
22852;DHT22;11592;45.460;9.240;2023-06-26T12:24:38;34.30;93.70
22852;DHT22;11592;45.460;9.240;2023-06-26T12:27:10;34.40;93.80
22852;DHT22;11592;45.460;9.240;2023-06-26T12:29:39;34.60;93.60
22852;DHT22;11592;45.460;9.240;2023-06-26T12:32:10;34.70;93.10
22852;DHT22;11592;45.460;9.240;2023-06-26T12:34:38;34.70;94.40
22852;DHT22;11592;45.460;9.240;2023-06-26T12:37:07;34.90;93.80
22852;DHT22;11592;45.460;9.240;2023-06-26T12:39:51;35.20;94.20
22852;DHT22;11592;45.460;9.240;2023-06-26T12:42:28;35.30;91.80
22852;DHT22;11592;45.460;9.240;2023-06-26T12:44:59;34.90;91.50
22852;DHT22;11592;45.460;9.240;2023-06-26T12:47:27;34.70;91.70
22852;DHT22;11592;45.460;9.240;2023-06-26T12:49:55;34.60;93.40
22852;DHT22;11592;45.460;9.240;2023-06-26T12:52:24;34.80;92.80
22852;DHT22;11592;45.460;9.240;2023-06-26T12:54:54;34.90;92.30
22852;DHT22;11592;45.460;9.240;2023-06-26T12:57:22;34.60;91.40
22852;DHT22;11592;45.460;9.240;2023-06-26T12:59:49;34.30;91.60
22852;DHT22;11592;45.460;9.240;2023-06-26T13:02:16;34.30;91.60
22852;DHT22;11592;45.460;9.240;2023-06-26T13:04:44;34.60;93.00
22852;DHT22;11592;45.460;9.240;2023-06-26T13:07:12;34.90;91.10
22852;DHT22;11592;45.460;9.240;2023-06-26T13:09:38;34.90;91.40
22852;DHT22;11592;45.460;9.240;2023-06-26T13:12:07;35.20;91.70
22852;DHT22;11592;45.460;9.240;2023-06-26T13:14:35;35.60;91.50
22852;DHT22;11592;45.460;9.240;2023-06-26T13:17:02;35.80;92.40
22852;DHT22;11592;45.460;9.240;2023-06-26T13:19:30;36.00;91.40
22852;DHT22;11592;45.460;9.240;2023-06-26T13:21:58;36.20;90.00
22852;DHT22;11592;45.460;9.240;2023-06-26T13:24:24;36.20;90.50
22852;DHT22;11592;45.460;9.240;2023-06-26T13:26:51;36.40;90.20
22852;DHT22;11592;45.460;9.240;2023-06-26T13:29:18;36.20;88.50
22852;DHT22;11592;45.460;9.240;2023-06-26T13:31:45;36.30;90.80
22852;DHT22;11592;45.460;9.240;2023-06-26T13:34:21;36.60;91.70
22852;DHT22;11592;45.460;9.240;2023-06-26T13:36:49;37.10;89.00
22852;DHT22;11592;45.460;9.240;2023-06-26T13:39:16;37.10;88.00
22852;DHT22;11592;45.460;9.240;2023-06-26T13:41:43;36.90;89.90
22852;DHT22;11592;45.460;9.240;2023-06-26T13:44:10;37.10;88.40
22852;DHT22;11592;45.460;9.240;2023-06-26T13:46:50;36.70;85.40
22852;DHT22;11592;45.460;9.240;2023-06-26T13:49:17;36.20;86.30
22852;DHT22;11592;45.460;9.240;2023-06-26T13:51:44;36.20;87.70
22852;DHT22;11592;45.460;9.240;2023-06-26T13:54:13;36.60;88.50
22852;DHT22;11592;45.460;9.240;2023-06-26T13:56:40;37.10;87.90
22852;DHT22;11592;45.460;9.240;2023-06-26T13:59:07;37.30;86.40
22852;DHT22;11592;45.460;9.240;2023-06-26T14:01:34;37.60;86.50
22852;DHT22;11592;45.460;9.240;2023-06-26T14:04:01;37.60;84.80
22852;DHT22;11592;45.460;9.240;2023-06-26T14:06:27;37.80;86.50
22852;DHT22;11592;45.460;9.240;2023-06-26T14:08:54;37.80;82.70
22852;DHT22;11592;45.460;9.240;2023-06-26T14:11:21;37.20;82.20
22852;DHT22;11592;45.460;9.240;2023-06-26T14:13:49;37.20;83.50
22852;DHT22;11592;45.460;9.240;2023-06-26T14:16:16;37.30;83.90
22852;DHT22;11592;45.460;9.240;2023-06-26T14:18:45;37.10;82.70
22852;DHT22;11592;45.460;9.240;2023-06-26T14:21:11;37.40;86.50
22852;DHT22;11592;45.460;9.240;2023-06-26T14:23:38;38.10;87.30
22852;DHT22;11592;45.460;9.240;2023-06-26T14:26:05;38.80;85.20
22852;DHT22;11592;45.460;9.240;2023-06-26T14:28:32;39.40;87.70
22852;DHT22;11592;45.460;9.240;2023-06-26T14:30:59;39.50;80.00
22852;DHT22;11592;45.460;9.240;2023-06-26T14:33:26;39.00;78.70
22852;DHT22;11592;45.460;9.240;2023-06-26T14:35:52;38.80;79.30
22852;DHT22;11592;45.460;9.240;2023-06-26T14:38:21;38.70;80.30
22852;DHT22;11592;45.460;9.240;2023-06-26T14:40:48;38.20;79.30
22852;DHT22;11592;45.460;9.240;2023-06-26T14:43:15;38.00;81.50
22852;DHT22;11592;45.460;9.240;2023-06-26T14:45:43;38.10;82.40
22852;DHT22;11592;45.460;9.240;2023-06-26T14:48:10;38.40;80.50
22852;DHT22;11592;45.460;9.240;2023-06-26T14:50:37;37.80;79.30
22852;DHT22;11592;45.460;9.240;2023-06-26T14:53:04;37.60;81.40
22852;DHT22;11592;45.460;9.240;2023-06-26T14:55:32;37.70;81.90
22852;DHT22;11592;45.460;9.240;2023-06-26T14:58:10;37.80;80.00
22852;DHT22;11592;45.460;9.240;2023-06-26T15:00:37;37.50;80.70
22852;DHT22;11592;45.460;9.240;2023-06-26T15:03:05;37.40;81.00
22852;DHT22;11592;45.460;9.240;2023-06-26T15:05:32;37.30;80.10
22852;DHT22;11592;45.460;9.240;2023-06-26T15:07:59;37.10;80.30
22852;DHT22;11592;45.460;9.240;2023-06-26T15:10:26;36.70;80.40
22852;DHT22;11592;45.460;9.240;2023-06-26T15:13:01;36.60;81.10
22852;DHT22;11592;45.460;9.240;2023-06-26T15:15:28;36.70;82.30
22852;DHT22;11592;45.460;9.240;2023-06-26T15:17:54;36.90;81.20
22852;DHT22;11592;45.460;9.240;2023-06-26T15:20:21;37.00;83.60
22852;DHT22;11592;45.460;9.240;2023-06-26T15:22:48;37.30;83.50
22852;DHT22;11592;45.460;9.240;2023-06-26T15:25:15;37.60;83.80
22852;DHT22;11592;45.460;9.240;2023-06-26T15:27:42;37.50;81.80
22852;DHT22;11592;45.460;9.240;2023-06-26T15:30:09;37.40;81.70
22852;DHT22;11592;45.460;9.240;2023-06-26T15:32:36;36.70;82.30
22852;DHT22;11592;45.460;9.240;2023-06-26T15:35:03;36.40;82.80
22852;DHT22;11592;45.460;9.240;2023-06-26T15:37:30;36.30;85.20
22852;DHT22;11592;45.460;9.240;2023-06-26T15:39:57;35.90;84.00
22852;DHT22;11592;45.460;9.240;2023-06-26T15:42:27;35.70;84.70
22852;DHT22;11592;45.460;9.240;2023-06-26T15:44:57;35.70;84.50
22852;DHT22;11592;45.460;9.240;2023-06-26T15:47:24;35.80;85.50